createdAt,value
2022-08-27T00:00:14.936Z,54.70
2022-08-27T00:02:45.524Z,54.70
2022-08-27T00:05:14.596Z,54.80
2022-08-27T00:07:42.034Z,54.90
2022-08-27T00:10:10.699Z,55.00
2022-08-27T00:12:37.401Z,55.00
2022-08-27T00:15:05.823Z,55.00
2022-08-27T00:17:33.223Z,55.20
2022-08-27T00:19:59.832Z,55.40
2022-08-27T00:22:26.448Z,55.40
2022-08-27T00:24:53.252Z,55.50
2022-08-27T00:27:19.875Z,55.60
2022-08-27T00:29:47.403Z,55.50
2022-08-27T00:32:14.529Z,55.50
2022-08-27T00:34:41.236Z,55.60
2022-08-27T00:37:08.222Z,55.70
2022-08-27T00:39:36.831Z,55.80
2022-08-27T00:42:05.425Z,55.80
2022-08-27T00:44:32.653Z,55.80
2022-08-27T00:47:03.925Z,55.70
2022-08-27T00:49:46.770Z,55.80
2022-08-27T00:52:33.735Z,55.90
2022-08-27T00:55:13.745Z,55.90
2022-08-27T00:57:42.632Z,56.00
2022-08-27T01:00:14.290Z,56.10
2022-08-27T01:02:42.048Z,56.10
2022-08-27T01:05:12.856Z,56.10
2022-08-27T01:07:43.353Z,56.20
2022-08-27T01:10:13.419Z,56.40
2022-08-27T01:12:40.548Z,56.50
2022-08-27T01:15:11.999Z,56.40
2022-08-27T01:17:42.235Z,56.50
2022-08-27T01:20:15.489Z,56.50
2022-08-27T01:22:47.672Z,56.60
2022-08-27T01:25:16.751Z,56.60
2022-08-27T01:27:44.579Z,56.50
2022-08-27T01:30:16.276Z,56.50
2022-08-27T01:32:43.784Z,56.50
2022-08-27T01:35:12.358Z,56.50
2022-08-27T01:37:39.747Z,56.50
2022-08-27T01:40:08.308Z,56.50
2022-08-27T01:42:41.057Z,56.50
2022-08-27T01:45:12.027Z,56.60
2022-08-27T01:47:38.807Z,56.60
2022-08-27T01:50:35.963Z,56.70
2022-08-27T01:53:17.480Z,56.70
2022-08-27T01:55:47.653Z,56.80
2022-08-27T01:58:15.514Z,56.80
2022-08-27T02:00:45.219Z,56.80
2022-08-27T02:03:12.654Z,56.80
2022-08-27T02:05:45.034Z,56.80
2022-08-27T02:08:13.078Z,56.80
2022-08-27T02:10:40.483Z,57.00
2022-08-27T02:13:08.098Z,56.80
2022-08-27T02:15:37.500Z,56.90
2022-08-27T02:18:05.848Z,56.90
2022-08-27T02:20:32.994Z,56.80
2022-08-27T02:22:59.642Z,56.90
2022-08-27T02:25:28.823Z,56.90
2022-08-27T02:27:57.314Z,56.90
2022-08-27T02:30:24.172Z,56.90
2022-08-27T02:32:52.934Z,57.00
2022-08-27T02:35:22.456Z,57.00
2022-08-27T02:37:49.384Z,57.00
2022-08-27T02:40:18.631Z,57.00
2022-08-27T02:42:45.901Z,57.00
2022-08-27T02:45:13.927Z,56.90
2022-08-27T02:47:41.010Z,57.00
2022-08-27T02:50:08.535Z,57.10
2022-08-27T02:52:35.911Z,57.10
2022-08-27T02:55:04.115Z,57.10
2022-08-27T02:57:32.350Z,57.10
2022-08-27T03:00:09.347Z,57.10
2022-08-27T03:02:36.938Z,57.00
2022-08-27T03:05:06.444Z,57.00
2022-08-27T03:07:33.297Z,57.10
2022-08-27T03:09:59.884Z,57.10
2022-08-27T03:12:26.827Z,57.10
2022-08-27T03:14:53.541Z,57.10
2022-08-27T03:17:38.751Z,57.10
2022-08-27T03:20:07.108Z,57.20
2022-08-27T03:22:35.422Z,57.10
2022-08-27T03:25:03.467Z,57.20
2022-08-27T03:27:30.156Z,57.00
2022-08-27T03:29:59.636Z,56.80
2022-08-27T03:32:29.797Z,56.80
2022-08-27T03:34:58.578Z,56.80
2022-08-27T03:37:25.778Z,56.80
2022-08-27T03:39:52.652Z,56.90
2022-08-27T03:42:19.324Z,56.80
2022-08-27T03:44:46.167Z,57.30
2022-08-27T03:47:13.119Z,57.00
2022-08-27T03:49:40.105Z,57.00
2022-08-27T03:52:07.844Z,57.00
2022-08-27T03:54:36.212Z,57.20
2022-08-27T03:57:03.241Z,57.20
2022-08-27T03:59:31.064Z,57.30
2022-08-27T04:01:58.255Z,57.30
2022-08-27T04:04:25.024Z,57.40
2022-08-27T04:06:51.861Z,57.50
2022-08-27T04:09:18.843Z,57.70
2022-08-27T04:11:45.468Z,57.70
2022-08-27T04:14:22.662Z,57.90
2022-08-27T04:16:56.008Z,58.10
2022-08-27T04:19:27.314Z,58.20
2022-08-27T04:21:58.952Z,58.40
2022-08-27T04:24:25.727Z,58.50
2022-08-27T04:26:52.324Z,58.60
2022-08-27T04:29:18.925Z,58.60
2022-08-27T04:31:45.658Z,58.80
2022-08-27T04:34:12.340Z,58.90
2022-08-27T04:36:38.942Z,59.10
2022-08-27T04:39:05.613Z,59.40
2022-08-27T04:41:33.408Z,59.50
2022-08-27T04:44:05.808Z,59.70
2022-08-27T04:46:37.709Z,59.80
2022-08-27T04:49:10.550Z,59.90
2022-08-27T04:51:38.077Z,60.00
2022-08-27T04:54:07.678Z,60.20
2022-08-27T04:56:34.875Z,60.20
2022-08-27T04:59:03.944Z,60.30
2022-08-27T05:01:31.039Z,60.30
2022-08-27T05:04:01.171Z,60.40
2022-08-27T05:06:28.087Z,60.40
2022-08-27T05:08:55.340Z,60.40
2022-08-27T05:11:23.751Z,60.40
2022-08-27T05:13:51.091Z,60.50
2022-08-27T05:16:20.736Z,60.50
2022-08-27T05:18:50.069Z,60.60
2022-08-27T05:21:22.951Z,60.60
2022-08-27T05:23:50.763Z,60.60
2022-08-27T05:26:17.770Z,60.50
2022-08-27T05:28:44.706Z,60.40
2022-08-27T05:31:13.894Z,60.30
2022-08-27T05:33:42.135Z,60.20
2022-08-27T05:36:16.048Z,60.10
2022-08-27T05:38:43.192Z,60.30
2022-08-27T05:41:14.379Z,60.30
2022-08-27T05:43:45.389Z,60.30
2022-08-27T05:46:16.895Z,60.20
2022-08-27T05:48:43.790Z,60.30
2022-08-27T05:51:11.691Z,60.30
2022-08-27T05:53:39.392Z,60.20
2022-08-27T05:56:12.143Z,60.30
2022-08-27T05:58:57.511Z,60.30
2022-08-27T06:01:26.138Z,60.40
2022-08-27T06:03:54.851Z,60.30
2022-08-27T06:06:22.797Z,60.30
2022-08-27T06:08:51.169Z,60.30
2022-08-27T06:11:19.509Z,60.20
2022-08-27T06:13:46.952Z,60.10
2022-08-27T06:16:16.898Z,60.00
2022-08-27T06:18:45.871Z,60.00
2022-08-27T06:21:14.187Z,59.90
2022-08-27T06:23:41.051Z,60.00
2022-08-27T06:26:10.421Z,59.80
2022-08-27T06:28:41.183Z,59.60
2022-08-27T06:31:15.056Z,59.50
2022-08-27T06:33:43.538Z,59.60
2022-08-27T06:36:13.351Z,59.60
2022-08-27T06:38:40.241Z,59.50
2022-08-27T06:41:08.410Z,59.40
2022-08-27T06:43:43.718Z,59.40
2022-08-27T06:46:13.914Z,59.40
2022-08-27T06:48:41.431Z,59.50
2022-08-27T06:51:28.692Z,59.40
2022-08-27T06:53:58.183Z,59.30
2022-08-27T06:56:24.939Z,59.70
2022-08-27T06:58:59.570Z,59.10
2022-08-27T07:01:30.513Z,59.00
2022-08-27T07:04:02.720Z,58.70
2022-08-27T07:06:31.599Z,58.60
2022-08-27T07:08:59.263Z,58.40
2022-08-27T07:11:31.797Z,58.30
2022-08-27T07:13:59.080Z,57.90
2022-08-27T07:16:27.523Z,57.60
2022-08-27T07:18:56.453Z,57.30
2022-08-27T07:21:24.795Z,57.20
2022-08-27T07:23:53.783Z,56.70
2022-08-27T07:26:23.086Z,56.40
2022-08-27T07:28:50.452Z,56.20
2022-08-27T07:31:19.489Z,55.90
2022-08-27T07:33:52.806Z,55.50
2022-08-27T07:36:21.523Z,55.30
2022-08-27T07:38:56.706Z,55.20
2022-08-27T07:41:31.010Z,55.00
2022-08-27T07:44:19.136Z,54.60
2022-08-27T07:46:48.422Z,54.10
2022-08-27T07:49:17.156Z,53.80
2022-08-27T07:51:44.019Z,53.20
2022-08-27T07:54:10.812Z,52.70
2022-08-27T07:56:37.431Z,52.10
2022-08-27T07:59:04.047Z,51.70
2022-08-27T08:01:30.742Z,51.10
2022-08-27T08:03:57.723Z,50.40
2022-08-27T08:06:24.344Z,50.30
2022-08-27T08:08:51.153Z,50.10
2022-08-27T08:11:18.736Z,50.00
2022-08-27T08:13:46.292Z,49.90
2022-08-27T08:16:13.574Z,49.60
2022-08-27T08:18:40.666Z,49.20
2022-08-27T08:21:10.180Z,48.80
2022-08-27T08:23:38.337Z,48.30
2022-08-27T08:26:06.792Z,48.40
2022-08-27T08:28:33.811Z,48.30
2022-08-27T08:31:00.898Z,47.90
2022-08-27T08:33:27.932Z,47.80
2022-08-27T08:35:54.875Z,47.30
2022-08-27T08:38:21.979Z,46.90
2022-08-27T08:40:53.191Z,46.50
2022-08-27T08:43:25.759Z,47.00
2022-08-27T08:45:53.825Z,46.40
2022-08-27T08:48:23.750Z,46.00
2022-08-27T08:51:08.488Z,45.60
2022-08-27T08:53:52.868Z,45.20
2022-08-27T08:57:01.731Z,45.20
2022-08-27T08:59:31.949Z,44.80
2022-08-27T09:01:59.122Z,44.50
2022-08-27T09:04:30.069Z,44.50
2022-08-27T09:07:05.429Z,44.30
2022-08-27T09:09:45.791Z,44.10
2022-08-27T09:12:22.210Z,44.20
2022-08-27T09:15:01.380Z,43.70
2022-08-27T09:17:29.265Z,43.60
2022-08-27T09:19:56.113Z,43.80
2022-08-27T09:23:01.432Z,43.80
2022-08-27T09:25:34.238Z,43.90
2022-08-27T09:28:28.819Z,43.90
2022-08-27T09:31:00.662Z,43.40
2022-08-27T09:33:46.066Z,43.10
2022-08-27T09:36:21.632Z,43.20
2022-08-27T09:38:58.277Z,43.40
2022-08-27T09:41:29.389Z,43.20
2022-08-27T09:44:08.164Z,43.20
2022-08-27T09:46:34.820Z,43.00
2022-08-27T09:49:17.460Z,42.90
2022-08-27T09:51:46.420Z,42.90
2022-08-27T09:54:26.076Z,42.70
2022-08-27T09:56:52.803Z,42.50
2022-08-27T09:59:31.828Z,42.70
2022-08-27T10:02:18.676Z,42.70
2022-08-27T10:04:51.044Z,42.80
2022-08-27T10:07:41.511Z,42.80
2022-08-27T10:10:21.970Z,43.00
2022-08-27T10:12:59.651Z,42.60
2022-08-27T10:15:38.753Z,42.50
2022-08-27T10:18:24.447Z,42.60
2022-08-27T10:21:25.521Z,42.30
2022-08-27T10:24:18.480Z,41.50
2022-08-27T10:26:51.976Z,41.80
2022-08-27T10:29:43.602Z,42.00
2022-08-27T10:32:10.255Z,41.70
2022-08-27T10:35:00.607Z,41.80
2022-08-27T10:37:45.500Z,41.10
2022-08-27T10:40:26.833Z,41.10
2022-08-27T10:43:08.560Z,41.10
2022-08-27T10:45:51.159Z,41.30
2022-08-27T10:48:30.728Z,41.50
2022-08-27T10:51:17.433Z,41.50
2022-08-27T10:53:58.558Z,42.10
2022-08-27T10:56:35.995Z,42.10
2022-08-27T10:59:28.701Z,42.10
2022-08-27T11:02:18.868Z,42.40
2022-08-27T11:04:51.247Z,42.20
2022-08-27T11:07:26.688Z,43.20
2022-08-27T11:10:20.883Z,42.70
2022-08-27T11:12:51.685Z,42.50
2022-08-27T11:15:27.435Z,42.70
2022-08-27T11:18:06.150Z,42.50
2022-08-27T11:20:47.979Z,42.60
2022-08-27T11:23:36.320Z,42.30
2022-08-27T11:26:05.307Z,42.10
2022-08-27T11:28:54.744Z,42.00
2022-08-27T11:31:41.522Z,41.40
2022-08-27T11:34:24.060Z,41.80
2022-08-27T11:37:06.178Z,41.10
2022-08-27T11:39:52.069Z,40.90
2022-08-27T11:42:39.042Z,40.90
2022-08-27T11:45:20.619Z,40.10
2022-08-27T11:48:01.885Z,39.70
2022-08-27T11:50:31.093Z,39.60
2022-08-27T11:53:02.071Z,39.90
2022-08-27T11:55:37.819Z,39.90
2022-08-27T11:58:06.791Z,40.00
2022-08-27T12:00:40.757Z,40.20
2022-08-27T12:03:25.511Z,40.30
2022-08-27T12:05:55.213Z,40.20
2022-08-27T12:08:21.809Z,40.30
2022-08-27T12:11:14.960Z,40.50
2022-08-27T12:13:45.111Z,40.50
2022-08-27T12:16:27.528Z,40.50
2022-08-27T12:19:08.131Z,40.80
2022-08-27T12:22:12.248Z,41.10
2022-08-27T12:24:55.560Z,40.90
2022-08-27T12:27:24.243Z,40.60
2022-08-27T12:30:15.459Z,40.00
2022-08-27T12:32:44.772Z,39.60
2022-08-27T12:35:19.541Z,39.80
2022-08-27T12:38:20.311Z,39.80
2022-08-27T12:40:47.000Z,39.80
2022-08-27T12:43:22.823Z,39.60
2022-08-27T12:45:52.639Z,39.00
2022-08-27T12:48:27.144Z,38.70
2022-08-27T12:51:03.433Z,38.20
2022-08-27T12:53:40.387Z,38.30
2022-08-27T12:56:43.723Z,38.40
2022-08-27T12:59:37.534Z,38.50
2022-08-27T13:02:28.017Z,38.90
2022-08-27T13:04:55.207Z,38.10
2022-08-27T13:07:32.932Z,37.90
2022-08-27T13:10:15.422Z,37.50
2022-08-27T13:12:44.216Z,37.40
2022-08-27T13:15:14.434Z,37.00
2022-08-27T13:17:44.177Z,37.00
2022-08-27T13:20:22.464Z,37.20
2022-08-27T13:22:50.813Z,36.90
2022-08-27T13:25:26.411Z,36.90
2022-08-27T13:28:11.387Z,36.80
2022-08-27T13:30:41.983Z,36.90
2022-08-27T13:33:14.366Z,36.90
2022-08-27T13:35:43.568Z,37.00
2022-08-27T13:38:11.416Z,37.20
2022-08-27T13:40:59.225Z,37.10
2022-08-27T13:43:33.746Z,37.10
2022-08-27T13:46:02.991Z,36.50
2022-08-27T13:48:29.880Z,36.60
2022-08-27T13:50:57.799Z,36.60
2022-08-27T13:53:47.648Z,36.40
2022-08-27T13:56:24.575Z,36.40
2022-08-27T13:58:51.523Z,36.50
2022-08-27T14:01:28.821Z,36.70
2022-08-27T14:04:04.115Z,36.50
2022-08-27T14:06:45.197Z,36.70
2022-08-27T14:09:40.308Z,36.70
2022-08-27T14:12:11.312Z,37.00
2022-08-27T14:14:41.044Z,37.10
2022-08-27T14:17:35.484Z,37.20
2022-08-27T14:20:04.430Z,37.30
2022-08-27T14:22:34.292Z,37.50
2022-08-27T14:25:02.035Z,37.60
2022-08-27T14:27:29.204Z,37.50
2022-08-27T14:29:56.158Z,37.50
2022-08-27T14:32:22.798Z,37.60
2022-08-27T14:34:49.687Z,37.40
2022-08-27T14:37:16.371Z,36.80
2022-08-27T14:39:43.412Z,36.20
2022-08-27T14:42:12.371Z,35.70
2022-08-27T14:44:39.083Z,35.60
2022-08-27T14:47:09.585Z,35.80
2022-08-27T14:49:40.442Z,35.60
2022-08-27T14:52:08.341Z,36.40
2022-08-27T14:54:35.312Z,35.00
2022-08-27T14:57:03.237Z,35.00
2022-08-27T14:59:30.004Z,34.90
2022-08-27T15:01:59.290Z,34.10
2022-08-27T15:04:26.535Z,34.10
2022-08-27T15:06:54.931Z,33.90
2022-08-27T15:09:22.275Z,33.70
2022-08-27T15:11:49.927Z,33.50
2022-08-27T15:14:34.307Z,34.00
2022-08-27T15:17:02.039Z,34.30
2022-08-27T15:19:38.043Z,34.30
2022-08-27T15:22:26.839Z,34.40
2022-08-27T15:24:56.002Z,34.50
2022-08-27T15:27:23.600Z,34.30
2022-08-27T15:29:59.633Z,34.60
2022-08-27T15:32:36.862Z,34.90
2022-08-27T15:35:08.215Z,34.90
2022-08-27T15:37:35.808Z,35.20
2022-08-27T15:40:03.795Z,35.60
2022-08-27T15:42:30.575Z,36.20
2022-08-27T15:44:57.681Z,36.70
2022-08-27T15:47:25.298Z,37.40
2022-08-27T15:49:52.125Z,37.60
2022-08-27T15:52:21.176Z,38.30
2022-08-27T15:54:49.995Z,37.90
2022-08-27T15:57:18.611Z,38.20
2022-08-27T15:59:45.258Z,38.40
2022-08-27T16:02:20.458Z,38.70
2022-08-27T16:04:49.179Z,38.80
2022-08-27T16:07:17.806Z,38.90
2022-08-27T16:09:47.974Z,38.60
2022-08-27T16:12:26.974Z,38.40
2022-08-27T16:14:55.181Z,37.30
2022-08-27T16:17:22.730Z,36.50
2022-08-27T16:19:49.430Z,36.10
2022-08-27T16:22:16.330Z,35.50
2022-08-27T16:24:43.519Z,34.90
2022-08-27T16:27:10.333Z,34.30
2022-08-27T16:29:37.251Z,33.50
2022-08-27T16:32:04.579Z,33.40
2022-08-27T16:34:33.498Z,33.40
2022-08-27T16:37:00.198Z,33.10
2022-08-27T16:39:31.812Z,33.20
2022-08-27T16:42:00.612Z,33.20
2022-08-27T16:44:27.303Z,33.40
2022-08-27T16:46:53.893Z,33.80
2022-08-27T16:49:39.347Z,34.30
2022-08-27T16:52:07.276Z,34.70
2022-08-27T16:54:34.725Z,35.40
2022-08-27T16:57:01.891Z,35.80
2022-08-27T16:59:28.496Z,36.10
2022-08-27T17:01:55.422Z,36.40
2022-08-27T17:04:30.277Z,36.90
2022-08-27T17:06:58.398Z,37.30
2022-08-27T17:09:26.164Z,37.60
2022-08-27T17:11:56.942Z,37.80
2022-08-27T17:14:24.066Z,37.90
2022-08-27T17:16:53.722Z,38.10
2022-08-27T17:19:22.452Z,38.30
2022-08-27T17:21:50.584Z,38.40
2022-08-27T17:24:17.976Z,38.80
2022-08-27T17:26:44.846Z,39.20
2022-08-27T17:29:11.684Z,39.30
2022-08-27T17:31:41.321Z,39.40
2022-08-27T17:34:15.167Z,39.70
2022-08-27T17:36:44.238Z,39.90
2022-08-27T17:39:11.642Z,39.80
2022-08-27T17:41:41.975Z,39.80
2022-08-27T17:44:24.334Z,40.10
2022-08-27T17:46:52.868Z,40.30
2022-08-27T17:49:19.610Z,40.30
2022-08-27T17:51:48.404Z,40.50
2022-08-27T17:54:35.727Z,40.60
2022-08-27T17:57:05.292Z,40.60
2022-08-27T17:59:31.882Z,40.50
2022-08-27T18:01:58.677Z,40.60
2022-08-27T18:04:25.428Z,40.70
2022-08-27T18:06:52.055Z,40.70
2022-08-27T18:09:18.754Z,41.40
2022-08-27T18:11:46.642Z,40.80
2022-08-27T18:14:13.728Z,40.90
2022-08-27T18:16:45.669Z,40.90
2022-08-27T18:19:12.413Z,41.00
2022-08-27T18:21:46.782Z,41.10
2022-08-27T18:24:14.807Z,41.10
2022-08-27T18:26:41.693Z,41.40
2022-08-27T18:29:08.626Z,41.30
2022-08-27T18:31:37.712Z,41.50
2022-08-27T18:34:04.686Z,41.50
2022-08-27T18:36:31.427Z,41.70
2022-08-27T18:38:58.096Z,41.80
2022-08-27T18:41:26.199Z,41.90
2022-08-27T18:43:52.927Z,42.10
2022-08-27T18:46:19.580Z,42.20
2022-08-27T18:48:46.281Z,42.30
2022-08-27T18:51:15.474Z,42.30
2022-08-27T18:53:44.009Z,42.30
2022-08-27T18:56:16.770Z,42.30
2022-08-27T18:58:44.074Z,42.40
2022-08-27T19:01:20.219Z,42.50
2022-08-27T19:03:51.762Z,42.50
2022-08-27T19:06:20.624Z,42.60
2022-08-27T19:08:48.828Z,42.70
2022-08-27T19:11:15.635Z,42.80
2022-08-27T19:13:43.064Z,42.90
2022-08-27T19:16:21.759Z,43.00
2022-08-27T19:18:48.502Z,43.10
2022-08-27T19:21:15.261Z,43.20
2022-08-27T19:23:42.459Z,43.30
2022-08-27T19:26:19.207Z,43.40
2022-08-27T19:28:46.395Z,43.60
2022-08-27T19:31:14.370Z,43.60
2022-08-27T19:33:42.744Z,43.70
2022-08-27T19:36:15.629Z,43.80
2022-08-27T19:38:43.768Z,43.90
2022-08-27T19:41:10.558Z,44.00
2022-08-27T19:43:37.213Z,44.20
2022-08-27T19:46:05.336Z,44.40
2022-08-27T19:48:34.090Z,44.40
2022-08-27T19:51:01.137Z,44.50
2022-08-27T19:53:28.077Z,44.60
2022-08-27T19:55:54.848Z,44.80
2022-08-27T19:58:21.623Z,44.90
2022-08-27T20:00:48.821Z,44.90
2022-08-27T20:03:16.114Z,45.00
2022-08-27T20:05:43.756Z,45.20
2022-08-27T20:08:10.504Z,45.30
2022-08-27T20:10:39.963Z,45.40
2022-08-27T20:13:07.050Z,45.50
2022-08-27T20:15:34.896Z,45.70
2022-08-27T20:18:02.549Z,45.70
2022-08-27T20:20:30.183Z,45.70
2022-08-27T20:22:59.143Z,45.90
2022-08-27T20:25:26.317Z,46.10
2022-08-27T20:27:53.277Z,46.30
2022-08-27T20:30:22.879Z,46.40
2022-08-27T20:32:49.744Z,46.40
2022-08-27T20:35:17.508Z,46.50
2022-08-27T20:37:46.038Z,46.60
2022-08-27T20:40:19.741Z,46.60
2022-08-27T20:42:46.451Z,46.80
2022-08-27T20:45:14.917Z,46.90
2022-08-27T20:47:43.258Z,46.90
2022-08-27T20:50:12.655Z,47.00
2022-08-27T20:52:40.552Z,47.10
2022-08-27T20:55:09.565Z,47.20
2022-08-27T20:57:37.534Z,47.20
2022-08-27T21:00:21.183Z,47.40
2022-08-27T21:02:47.870Z,47.50
2022-08-27T21:05:16.390Z,47.60
2022-08-27T21:07:44.430Z,47.60
2022-08-27T21:10:11.356Z,47.70
2022-08-27T21:12:37.995Z,47.80
2022-08-27T21:15:06.420Z,47.90
2022-08-27T21:17:33.383Z,48.10
2022-08-27T21:20:00.376Z,48.20
2022-08-27T21:22:27.393Z,48.30
2022-08-27T21:24:54.551Z,48.40
2022-08-27T21:27:21.775Z,48.50
2022-08-27T21:29:48.616Z,48.60
2022-08-27T21:32:15.449Z,48.60
2022-08-27T21:34:42.453Z,48.60
2022-08-27T21:37:10.972Z,48.70
2022-08-27T21:39:38.995Z,48.70
2022-08-27T21:42:06.029Z,48.80
2022-08-27T21:44:34.147Z,48.90
2022-08-27T21:47:01.689Z,49.00
2022-08-27T21:49:28.426Z,49.10
2022-08-27T21:51:55.044Z,49.30
2022-08-27T21:54:23.409Z,49.30
2022-08-27T21:56:52.699Z,49.60
2022-08-27T21:59:19.932Z,49.80
2022-08-27T22:01:46.586Z,50.00
2022-08-27T22:04:13.372Z,50.20
2022-08-27T22:06:40.004Z,50.50
2022-08-27T22:09:06.628Z,50.60
2022-08-27T22:11:33.367Z,50.70
2022-08-27T22:14:00.224Z,50.80
2022-08-27T22:16:26.879Z,51.00
2022-08-27T22:18:54.652Z,51.20
2022-08-27T22:21:22.728Z,51.30
2022-08-27T22:23:51.330Z,51.40
2022-08-27T22:26:19.499Z,51.60
2022-08-27T22:28:46.114Z,51.70
2022-08-27T22:31:12.827Z,51.80
2022-08-27T22:33:39.688Z,51.90
2022-08-27T22:36:06.496Z,52.00
2022-08-27T22:38:33.492Z,52.10
2022-08-27T22:41:00.581Z,52.40
2022-08-27T22:43:27.908Z,52.50
2022-08-27T22:45:54.636Z,52.50
2022-08-27T22:48:21.327Z,52.60
2022-08-27T22:50:47.935Z,52.70
2022-08-27T22:53:14.709Z,52.70
2022-08-27T22:55:41.402Z,52.70
2022-08-27T22:58:08.175Z,52.70
2022-08-27T23:00:37.648Z,52.90
2022-08-27T23:03:06.932Z,53.00
2022-08-27T23:05:41.378Z,53.10
2022-08-27T23:08:11.005Z,53.20
2022-08-27T23:10:38.455Z,53.40
2022-08-27T23:13:06.801Z,53.60
2022-08-27T23:15:33.583Z,53.60
2022-08-27T23:18:01.499Z,53.60
2022-08-27T23:20:28.757Z,53.70
2022-08-27T23:22:56.060Z,53.70
2022-08-27T23:25:44.059Z,53.80
2022-08-27T23:28:14.662Z,54.00
2022-08-27T23:30:41.845Z,54.10
2022-08-27T23:33:08.472Z,54.20
2022-08-27T23:35:35.325Z,54.30
2022-08-27T23:38:02.012Z,54.40
2022-08-27T23:40:28.773Z,55.20
2022-08-27T23:42:55.711Z,54.70
2022-08-27T23:45:24.841Z,54.80
2022-08-27T23:47:51.871Z,54.80
2022-08-27T23:50:19.104Z,54.80
2022-08-27T23:52:45.702Z,54.90
2022-08-27T23:55:12.739Z,55.00
2022-08-27T23:57:39.756Z,55.10
